Time;durP1;ratioP1;P1;durP2;ratioP2;P2;SDS_P1;SDS_P2;PMS_P1;PMS_P2;Temp;Humidity;BMP_temperature;BMP_pressure;BME280_temperature;BME280_humidity;BME280_pressure;Samples;Min_cycle;Max_cycle;Signal;HPM_P1;HPM_P2
2022/03/05 00:02:27;;;;;;;14.02;12.40;;;4.20;99.90;;;;;;5018759;28;20230;-79
2022/03/05 00:04:54;;;;;;;14.77;12.68;;;4.20;99.90;;;;;;5023563;28;20210;-80
2022/03/05 00:07:21;;;;;;;13.73;12.32;;;4.10;99.90;;;;;;5022099;28;20223;-79
2022/03/05 00:09:48;;;;;;;14.10;12.65;;;4.10;99.90;;;;;;5017353;28;20196;-79
2022/03/05 00:12:17;;;;;;;15.02;13.45;;;4.10;99.90;;;;;;5010957;28;20226;-79
2022/03/05 00:14:44;;;;;;;13.80;12.40;;;4.10;99.90;;;;;;5017801;28;20196;-79
2022/03/05 00:17:11;;;;;;;13.27;11.98;;;4.10;99.90;;;;;;5012796;28;20191;-80
2022/03/05 00:19:38;;;;;;;13.48;11.40;;;4.00;99.90;;;;;;5014955;28;20211;-78
2022/03/05 00:22:05;;;;;;;12.52;11.27;;;4.00;99.90;;;;;;5011400;28;20246;-78
2022/03/05 00:24:32;;;;;;;13.30;11.40;;;4.00;99.90;;;;;;5010344;28;20228;-77
2022/03/05 00:27:00;;;;;;;13.10;11.70;;;4.00;99.90;;;;;;5015928;28;20236;-79
2022/03/05 00:29:28;;;;;;;12.30;11.05;;;4.00;99.90;;;;;;5009306;28;20220;-78
2022/03/05 00:31:55;;;;;;;13.02;11.27;;;4.00;99.90;;;;;;5011548;28;20206;-79
2022/03/05 00:34:23;;;;;;;13.35;11.95;;;4.00;99.90;;;;;;4982507;23;20231;-76
2022/03/05 00:36:50;;;;;;;13.73;12.32;;;4.00;99.90;;;;;;4928118;29;20663;-75
2022/03/05 00:39:17;;;;;;;14.07;12.63;;;3.90;99.90;;;;;;4928436;28;20229;-75
2022/03/05 00:41:44;;;;;;;13.32;11.93;;;3.80;99.90;;;;;;4928850;29;20291;-75
2022/03/05 00:44:11;;;;;;;13.10;11.52;;;3.80;99.90;;;;;;4929102;29;20222;-76
2022/03/05 00:46:41;;;;;;;12.60;11.30;;;3.80;99.90;;;;;;4931389;29;20202;-73
2022/03/05 00:49:08;;;;;;;13.40;12.00;;;3.70;99.90;;;;;;4931098;29;20742;-74
2022/03/05 00:51:35;;;;;;;14.07;12.68;;;3.70;99.90;;;;;;4932623;29;20641;-76
2022/03/05 00:54:02;;;;;;;12.65;11.35;;;3.60;99.90;;;;;;4931590;29;20222;-76
2022/03/05 00:56:30;;;;;;;13.50;12.15;;;3.60;99.90;;;;;;4931629;29;20666;-76
2022/03/05 00:58:57;;;;;;;13.00;11.63;;;3.60;99.90;;;;;;4928138;29;20239;-75
2022/03/05 01:01:24;;;;;;;13.57;12.18;;;3.60;99.90;;;;;;4929913;29;20215;-74
2022/03/05 01:03:52;;;;;;;14.40;12.90;;;3.60;99.90;;;;;;4930648;29;20246;-76
2022/03/05 01:06:20;;;;;;;14.00;12.50;;;3.60;99.90;;;;;;4933985;29;20198;-75
2022/03/05 01:08:47;;;;;;;12.90;11.60;;;3.50;99.90;;;;;;4940170;28;20672;-76
2022/03/05 01:11:16;;;;;;;14.15;12.48;;;3.50;99.90;;;;;;4949004;28;20212;-77
2022/03/05 01:13:43;;;;;;;13.38;11.98;;;3.40;99.90;;;;;;4950013;28;20246;-76
2022/03/05 01:16:10;;;;;;;13.05;11.57;;;3.40;99.90;;;;;;4952808;28;20241;-75
2022/03/05 01:18:37;;;;;;;15.18;12.57;;;3.40;99.90;;;;;;4950271;28;20217;-77
2022/03/05 01:21:06;;;;;;;14.57;12.90;;;3.30;99.90;;;;;;4952949;28;20213;-75
2022/03/05 01:23:33;;;;;;;13.13;11.30;;;3.30;99.90;;;;;;4945224;28;20577;-76
2022/03/05 01:26:00;;;;;;;12.57;11.27;;;3.30;99.90;;;;;;4951345;28;20665;-75
2022/03/05 01:28:27;;;;;;;12.90;11.60;;;3.30;99.90;;;;;;4948423;28;20268;-77
2022/03/05 01:30:54;;;;;;;13.10;11.30;;;3.30;99.90;;;;;;4951615;28;20198;-75
2022/03/05 01:33:22;;;;;;;13.13;11.82;;;3.30;99.90;;;;;;4949779;28;20326;-77
2022/03/05 01:35:49;;;;;;;13.55;12.15;;;3.30;99.90;;;;;;4952808;28;20559;-75
2022/03/05 01:38:18;;;;;;;12.93;11.52;;;3.30;99.90;;;;;;4950377;28;20653;-76
2022/03/05 01:40:47;;;;;;;13.52;12.13;;;3.30;99.90;;;;;;4949458;28;20229;-76
2022/03/05 01:43:14;;;;;;;12.60;11.30;;;3.30;99.90;;;;;;4951541;28;20221;-77
2022/03/05 01:45:42;;;;;;;14.70;12.52;;;3.20;99.90;;;;;;4948115;28;20213;-77
2022/03/05 01:48:09;;;;;;;13.80;12.50;;;3.20;99.90;;;;;;4950889;28;20222;-78
2022/03/05 01:50:36;;;;;;;12.75;11.57;;;3.20;99.90;;;;;;4948516;28;20213;-75
2022/03/05 01:53:03;;;;;;;13.57;12.18;;;3.20;99.90;;;;;;4948454;28;20621;-76
2022/03/05 01:55:32;;;;;;;12.15;11.00;;;3.20;99.90;;;;;;4951342;28;20198;-77
2022/03/05 01:58:00;;;;;;;13.50;12.10;;;3.20;99.90;;;;;;4935763;28;20605;-76
2022/03/05 02:00:28;;;;;;;14.98;12.07;;;3.20;99.90;;;;;;4949540;28;20687;-76
2022/03/05 02:02:55;;;;;;;14.18;12.68;;;3.20;99.90;;;;;;4949880;28;20222;-76
2022/03/05 02:05:23;;;;;;;14.85;13.00;;;3.20;99.90;;;;;;4947475;28;20608;-78
2022/03/05 02:07:50;;;;;;;13.98;12.55;;;3.10;99.90;;;;;;4951985;28;20627;-76
2022/03/05 02:10:18;;;;;;;15.75;12.95;;;3.00;99.90;;;;;;4947375;28;20198;-76
2022/03/05 02:12:46;;;;;;;13.55;11.70;;;3.00;99.90;;;;;;4944766;28;20202;-75
2022/03/05 02:15:13;;;;;;;13.18;11.77;;;3.00;99.90;;;;;;4949194;28;20210;-79
2022/03/05 02:17:41;;;;;;;13.27;11.95;;;3.00;99.90;;;;;;4948731;28;20205;-77
2022/03/05 02:20:09;;;;;;;13.82;12.05;;;3.00;99.90;;;;;;4951014;28;20195;-77
2022/03/05 02:22:39;;;;;;;14.38;12.88;;;3.00;99.90;;;;;;4950420;28;20212;-76
2022/03/05 02:25:07;;;;;;;12.60;11.30;;;3.00;99.90;;;;;;4952809;28;20236;-76
2022/03/05 02:27:35;;;;;;;12.60;11.20;;;3.00;99.90;;;;;;4953223;28;20237;-74
2022/03/05 02:30:02;;;;;;;13.13;11.75;;;3.00;99.90;;;;;;4952886;28;20229;-75
2022/03/05 02:32:29;;;;;;;13.85;12.43;;;2.90;99.90;;;;;;4947994;28;20296;-76
2022/03/05 02:34:56;;;;;;;13.20;11.80;;;2.90;99.90;;;;;;4947116;28;20233;-76
2022/03/05 02:37:23;;;;;;;13.15;11.80;;;2.90;99.90;;;;;;4953532;28;20198;-76
2022/03/05 02:39:52;;;;;;;13.15;11.85;;;2.80;99.90;;;;;;4951450;28;20229;-76
2022/03/05 02:42:19;;;;;;;12.38;11.07;;;2.80;99.90;;;;;;4950920;28;20209;-75
2022/03/05 02:44:47;;;;;;;11.93;10.45;;;2.70;99.90;;;;;;4947955;28;20688;-77
2022/03/05 02:47:14;;;;;;;12.02;10.77;;;2.70;99.90;;;;;;4950616;28;20217;-78
2022/03/05 02:49:41;;;;;;;11.88;10.63;;;2.60;99.90;;;;;;4955476;28;20718;-77
2022/03/05 02:52:09;;;;;;;10.73;9.68;;;2.60;99.90;;;;;;4957907;28;20210;-74
2022/03/05 02:54:36;;;;;;;11.70;10.48;;;2.60;99.90;;;;;;4952213;28;20229;-77
2022/03/05 02:57:05;;;;;;;12.50;10.95;;;2.60;99.90;;;;;;4953485;28;20201;-76
2022/03/05 02:59:32;;;;;;;11.85;10.75;;;2.60;99.90;;;;;;4955249;28;20233;-74
2022/03/05 03:01:59;;;;;;;12.43;11.15;;;2.50;99.90;;;;;;4958732;28;20214;-76
2022/03/05 03:04:26;;;;;;;11.95;10.80;;;2.50;99.90;;;;;;4951063;28;20735;-78
2022/03/05 03:06:54;;;;;;;11.77;10.68;;;2.50;99.90;;;;;;4954867;28;20194;-76
2022/03/05 03:09:21;;;;;;;12.35;11.15;;;2.40;99.90;;;;;;4951807;28;20236;-75
2022/03/05 03:11:48;;;;;;;12.13;10.93;;;2.40;99.90;;;;;;4954782;28;20225;-76
2022/03/05 03:14:17;;;;;;;12.25;11.02;;;2.40;99.90;;;;;;4955415;28;20763;-76
2022/03/05 03:16:44;;;;;;;12.40;10.38;;;2.40;99.90;;;;;;4949319;28;20405;-74
2022/03/05 03:19:11;;;;;;;12.13;10.93;;;2.40;99.90;;;;;;4948957;28;20308;-77
2022/03/05 03:21:38;;;;;;;12.07;10.88;;;2.40;99.90;;;;;;4954643;28;20206;-81
2022/03/05 03:24:05;;;;;;;12.23;11.00;;;2.30;99.90;;;;;;4954719;28;20720;-77
2022/03/05 03:26:33;;;;;;;12.07;10.63;;;2.30;99.90;;;;;;4953126;28;20209;-75
2022/03/05 03:29:00;;;;;;;13.38;11.52;;;2.30;99.90;;;;;;4950024;28;20230;-74
2022/03/05 03:31:28;;;;;;;12.70;11.48;;;2.20;99.90;;;;;;4952012;28;20653;-75
2022/03/05 03:33:56;;;;;;;12.70;11.50;;;2.20;99.90;;;;;;4953036;28;20222;-74
2022/03/05 03:36:23;;;;;;;12.85;11.48;;;2.20;99.90;;;;;;4956508;28;20194;-78
2022/03/05 03:38:50;;;;;;;12.32;11.02;;;2.20;99.90;;;;;;4950512;28;20222;-76
2022/03/05 03:41:17;;;;;;;12.25;10.95;;;2.20;99.90;;;;;;4954637;28;20685;-75
2022/03/05 03:43:44;;;;;;;12.05;10.77;;;2.20;99.90;;;;;;4949769;28;20230;-77
2022/03/05 03:46:12;;;;;;;13.07;11.75;;;2.20;99.90;;;;;;4950941;28;20202;-76
2022/03/05 03:48:40;;;;;;;12.55;11.25;;;2.20;99.90;;;;;;4950672;28;21882;-75
2022/03/05 03:51:08;;;;;;;13.30;11.93;;;2.20;99.90;;;;;;4953763;28;20201;-76
2022/03/05 03:53:35;;;;;;;12.60;11.30;;;2.10;99.90;;;;;;4947950;28;20225;-78
2022/03/05 03:56:02;;;;;;;12.00;10.80;;;2.10;99.90;;;;;;4955911;28;20205;-76
2022/03/05 03:58:29;;;;;;;11.30;10.25;;;2.00;99.90;;;;;;4953929;28;20237;-76
2022/03/05 04:00:56;;;;;;;12.48;11.07;;;2.00;99.90;;;;;;4953058;28;20214;-76
2022/03/05 04:03:23;;;;;;;12.68;10.65;;;2.00;99.90;;;;;;4952116;28;21188;-78
2022/03/05 04:05:52;;;;;;;11.50;10.30;;;1.90;99.90;;;;;;4955609;28;20219;-76
2022/03/05 04:11:04;;;;;;;12.32;11.02;;;1.80;99.90;;;;;;4954375;28;20245;-77
2022/03/05 04:13:31;;;;;;;11.15;10.02;;;1.80;99.90;;;;;;4948774;28;20277;-75
2022/03/05 04:15:58;;;;;;;10.77;9.75;;;1.70;99.90;;;;;;4956382;28;20206;-76
2022/03/05 04:18:26;;;;;;;11.30;10.10;;;1.70;99.90;;;;;;4950422;28;20743;-76
2022/03/05 04:20:54;;;;;;;12.45;11.25;;;1.70;99.90;;;;;;4949938;28;20214;-77
2022/03/05 04:23:21;;;;;;;11.55;10.40;;;1.70;99.90;;;;;;4949608;28;20319;-76
2022/03/05 04:25:48;;;;;;;12.35;11.15;;;1.70;99.90;;;;;;4952871;28;20657;-75
2022/03/05 04:28:16;;;;;;;11.77;10.57;;;1.80;99.90;;;;;;4949424;28;20231;-77
2022/03/05 04:30:43;;;;;;;10.25;9.30;;;1.80;99.90;;;;;;4950412;28;20205;-75
2022/03/05 04:33:10;;;;;;;10.38;9.38;;;1.80;99.90;;;;;;4956094;28;20597;-76
2022/03/05 04:35:37;;;;;;;12.60;11.30;;;1.70;99.90;;;;;;4950501;28;20210;-80
2022/03/05 04:38:06;;;;;;;13.75;12.05;;;1.80;99.90;;;;;;4951798;28;20206;-78
2022/03/05 04:40:34;;;;;;;11.85;10.65;;;1.90;99.90;;;;;;4954666;28;20580;-77
2022/03/05 04:43:01;;;;;;;12.05;10.85;;;1.80;99.90;;;;;;4953980;28;20230;-78
2022/03/05 04:45:28;;;;;;;11.38;10.18;;;1.80;99.90;;;;;;4954539;28;20225;-77
2022/03/05 04:47:55;;;;;;;11.07;9.95;;;1.70;99.90;;;;;;4955288;28;20214;-79
2022/03/05 04:50:23;;;;;;;10.77;9.68;;;1.70;99.90;;;;;;4959531;28;20304;-77
2022/03/05 04:52:50;;;;;;;11.30;10.07;;;1.70;99.90;;;;;;4949435;28;20275;-78
2022/03/05 04:55:18;;;;;;;11.40;10.23;;;1.60;99.90;;;;;;4951021;28;20233;-77
2022/03/05 04:57:45;;;;;;;13.43;12.00;;;1.70;99.90;;;;;;4954614;28;20210;-76
2022/03/05 05:00:14;;;;;;;11.70;10.50;;;1.60;99.90;;;;;;4953056;28;20225;-77
2022/03/05 05:02:41;;;;;;;10.77;9.68;;;1.60;99.90;;;;;;4949646;28;20209;-77
2022/03/05 05:05:08;;;;;;;11.02;9.93;;;1.50;99.90;;;;;;4954672;28;20233;-77
2022/03/05 05:07:37;;;;;;;10.82;9.75;;;1.50;99.90;;;;;;4950615;28;20259;-77
2022/03/05 05:10:04;;;;;;;11.25;10.25;;;1.50;99.90;;;;;;4952252;28;20226;-77
2022/03/05 05:12:33;;;;;;;11.18;10.18;;;1.40;99.90;;;;;;4955585;28;20205;-76
2022/03/05 05:15:00;;;;;;;10.93;9.90;;;1.50;99.90;;;;;;4954471;28;20226;-78
2022/03/05 05:17:27;;;;;;;10.18;8.77;;;1.50;99.90;;;;;;4950614;28;20825;-80
2022/03/05 05:19:54;;;;;;;9.98;8.98;;;1.50;99.90;;;;;;4949069;28;20229;-80
2022/03/05 05:22:21;;;;;;;10.20;9.20;;;1.50;99.90;;;;;;4952700;28;20205;-77
2022/03/05 05:24:49;;;;;;;10.15;9.10;;;1.50;99.90;;;;;;4959540;28;20226;-78
2022/03/05 05:27:16;;;;;;;11.00;9.20;;;1.40;99.90;;;;;;4953796;28;20297;-77
2022/03/05 05:29:44;;;;;;;9.63;8.73;;;1.50;99.90;;;;;;4954990;28;20413;-76
2022/03/05 05:32:13;;;;;;;10.45;9.45;;;1.40;99.90;;;;;;4952288;28;20197;-79
2022/03/05 05:34:41;;;;;;;11.00;9.88;;;1.30;99.90;;;;;;4955579;28;20249;-77
2022/03/05 05:37:08;;;;;;;10.82;9.85;;;1.30;99.90;;;;;;4951538;28;20208;-76
2022/03/05 05:39:35;;;;;;;10.25;9.18;;;1.20;99.90;;;;;;4952225;28;20728;-77
2022/03/05 05:42:03;;;;;;;11.57;10.45;;;1.20;99.90;;;;;;4957545;28;20206;-78
2022/03/05 05:44:30;;;;;;;10.77;9.68;;;1.20;99.90;;;;;;4956145;28;20229;-77
2022/03/05 05:46:59;;;;;;;10.05;8.82;;;1.20;99.90;;;;;;4953387;28;20660;-77
2022/03/05 05:49:26;;;;;;;9.82;8.90;;;1.10;99.90;;;;;;4947607;28;20237;-77
2022/03/05 05:51:53;;;;;;;10.57;9.60;;;1.10;99.90;;;;;;4954151;28;20202;-77
2022/03/05 05:54:20;;;;;;;10.32;9.23;;;1.10;99.90;;;;;;4947560;28;20218;-76
2022/03/05 05:56:47;;;;;;;10.77;9.77;;;1.10;99.90;;;;;;4950584;28;20202;-77
2022/03/05 05:59:15;;;;;;;10.68;8.88;;;1.00;99.90;;;;;;4950480;28;20222;-77
2022/03/05 06:01:42;;;;;;;10.57;9.48;;;1.00;99.90;;;;;;4950357;28;20203;-77
2022/03/05 06:04:10;;;;;;;10.77;9.63;;;1.00;99.90;;;;;;4947003;28;20222;-77
2022/03/05 06:06:37;;;;;;;9.88;8.88;;;1.00;99.90;;;;;;4950519;28;20197;-77
2022/03/05 06:09:05;;;;;;;10.65;9.55;;;1.00;99.90;;;;;;4955186;28;20234;-80
2022/03/05 06:11:32;;;;;;;10.23;9.23;;;1.10;99.90;;;;;;4954728;28;20662;-76
2022/03/05 06:13:59;;;;;;;12.32;10.48;;;1.10;99.90;;;;;;4957546;28;20232;-78
2022/03/05 06:16:26;;;;;;;10.65;9.63;;;1.10;99.90;;;;;;4954803;28;20209;-77
2022/03/05 06:18:53;;;;;;;10.77;9.68;;;1.10;99.90;;;;;;4955966;28;20355;-77
2022/03/05 06:21:23;;;;;;;10.02;9.02;;;1.10;99.90;;;;;;4952474;28;20201;-78
2022/03/05 06:23:50;;;;;;;10.63;9.52;;;1.20;99.90;;;;;;4958483;28;20497;-77
2022/03/05 06:26:17;;;;;;;11.13;9.50;;;1.20;99.90;;;;;;4954015;28;20217;-78
2022/03/05 06:28:44;;;;;;;9.77;8.98;;;1.20;99.90;;;;;;4951030;28;20225;-80
2022/03/05 06:31:11;;;;;;;9.73;8.82;;;1.20;99.90;;;;;;4958887;28;20671;-77
2022/03/05 06:33:39;;;;;;;10.27;9.15;;;1.30;99.90;;;;;;4988176;23;20216;-81
2022/03/05 06:36:06;;;;;;;9.77;8.48;;;1.30;99.90;;;;;;5020037;28;20211;-79
2022/03/05 06:38:35;;;;;;;10.15;9.25;;;1.30;99.90;;;;;;5019386;28;20192;-78
2022/03/05 06:41:02;;;;;;;8.60;7.82;;;1.30;99.90;;;;;;4991903;28;20209;-79
2022/03/05 06:43:29;;;;;;;10.05;9.05;;;1.30;99.90;;;;;;4994832;28;20255;-81
2022/03/05 06:45:57;;;;;;;8.85;8.02;;;1.40;99.90;;;;;;5002237;28;20227;-80
2022/03/05 06:48:24;;;;;;;9.23;8.32;;;1.40;99.90;;;;;;4996879;28;20207;-81
2022/03/05 06:50:51;;;;;;;8.95;8.05;;;1.50;99.90;;;;;;5004430;28;20618;-79
2022/03/05 06:53:18;;;;;;;8.65;7.85;;;1.40;99.90;;;;;;5005065;28;20208;-79
2022/03/05 06:55:47;;;;;;;8.80;7.95;;;1.40;99.90;;;;;;5023442;28;20228;-79
2022/03/05 06:58:17;;;;;;;10.15;9.13;;;1.50;99.90;;;;;;5022964;28;20196;-80
2022/03/05 07:00:45;;;;;;;11.13;8.02;;;1.90;99.90;;;;;;4996864;28;20229;-79
2022/03/05 07:03:12;;;;;;;10.27;9.30;;;2.60;99.90;;;;;;5005991;28;20197;-79
2022/03/05 07:05:39;;;;;;;8.65;7.85;;;3.50;99.90;;;;;;5016228;28;20220;-79
2022/03/05 07:08:07;;;;;;;9.05;8.15;;;4.30;99.90;;;;;;5016696;28;20208;-79
2022/03/05 07:10:34;;;;;;;9.50;8.60;;;5.10;98.20;;;;;;5021242;28;20319;-79
2022/03/05 07:13:03;;;;;;;9.00;8.18;;;5.60;96.40;;;;;;5023811;28;20290;-82
2022/03/05 07:15:30;;;;;;;9.52;8.70;;;6.00;93.40;;;;;;5016856;28;20232;-80
2022/03/05 07:17:57;;;;;;;8.70;7.97;;;6.10;93.80;;;;;;5021317;28;20291;-79
2022/03/05 07:20:25;;;;;;;8.93;8.02;;;6.50;93.40;;;;;;5018546;28;20232;-77
2022/03/05 07:22:52;;;;;;;8.90;7.97;;;6.90;92.90;;;;;;5015529;28;20204;-81
2022/03/05 07:25:19;;;;;;;9.38;8.52;;;7.20;92.10;;;;;;5023776;28;20229;-79
2022/03/05 07:27:46;;;;;;;9.27;8.27;;;7.40;92.10;;;;;;5019290;28;20200;-79
2022/03/05 07:30:15;;;;;;;9.35;8.45;;;7.40;91.30;;;;;;5023288;28;20215;-79
2022/03/05 07:32:42;;;;;;;9.85;8.45;;;7.70;91.00;;;;;;5011087;28;20214;-77
2022/03/05 07:35:10;;;;;;;9.15;8.25;;;7.90;91.20;;;;;;5013303;28;20589;-77
2022/03/05 07:37:37;;;;;;;9.48;8.57;;;8.10;90.60;;;;;;5015098;28;20211;-79
2022/03/05 07:40:05;;;;;;;9.10;8.30;;;8.40;90.10;;;;;;5016788;28;20694;-80
2022/03/05 07:42:33;;;;;;;9.18;8.18;;;8.70;90.00;;;;;;5020840;28;20686;-80
2022/03/05 07:45:00;;;;;;;8.90;8.00;;;8.80;90.00;;;;;;5018927;28;20729;-78
2022/03/05 07:47:28;;;;;;;8.90;8.05;;;9.20;89.00;;;;;;5023454;28;20200;-77
2022/03/05 07:49:55;;;;;;;8.52;7.60;;;9.40;87.20;;;;;;5018014;28;20228;-81
2022/03/05 07:52:23;;;;;;;8.70;7.88;;;9.30;86.00;;;;;;5018101;28;20212;-77
2022/03/05 07:54:50;;;;;;;9.55;8.55;;;9.30;86.50;;;;;;5017669;28;20219;-78
2022/03/05 07:57:17;;;;;;;9.52;8.23;;;9.40;89.00;;;;;;5021687;28;20212;-81
2022/03/05 07:59:44;;;;;;;9.40;8.50;;;9.50;87.10;;;;;;5009580;28;20443;-77
2022/03/05 08:02:15;;;;;;;9.13;8.13;;;9.50;87.10;;;;;;5009440;28;20196;-79
2022/03/05 08:04:44;;;;;;;9.40;8.50;;;9.40;84.60;;;;;;5014263;28;20303;-77
2022/03/05 08:07:12;;;;;;;9.65;8.65;;;9.40;85.30;;;;;;5020326;28;20188;-80
2022/03/05 08:09:40;;;;;;;9.85;8.20;;;9.60;87.20;;;;;;5011264;28;20247;-78
2022/03/05 08:12:08;;;;;;;8.95;8.00;;;9.90;86.80;;;;;;5014991;28;20197;-77
2022/03/05 08:14:35;;;;;;;9.50;8.52;;;10.00;85.90;;;;;;5015291;28;20234;-81
2022/03/05 08:17:03;;;;;;;8.13;7.40;;;10.00;85.30;;;;;;5011510;28;20223;-79
2022/03/05 08:19:30;;;;;;;8.32;7.53;;;9.90;84.80;;;;;;5012746;28;20251;-81
2022/03/05 08:21:58;;;;;;;8.32;7.53;;;10.10;85.30;;;;;;5009255;28;20211;-80
2022/03/05 08:24:26;;;;;;;8.77;7.97;;;9.90;85.30;;;;;;5007749;28;20232;-79
2022/03/05 08:26:53;;;;;;;7.90;7.15;;;10.10;84.30;;;;;;5014224;28;20287;-78
2022/03/05 08:29:20;;;;;;;8.68;7.88;;;10.10;83.00;;;;;;5012376;28;20249;-78
2022/03/05 08:31:47;;;;;;;9.80;7.65;;;10.20;82.30;;;;;;5012571;28;20200;-78
2022/03/05 08:34:15;;;;;;;8.45;7.55;;;10.40;82.40;;;;;;5013648;28;20231;-81
2022/03/05 08:36:42;;;;;;;8.23;7.32;;;10.50;80.20;;;;;;5011907;28;20524;-77
2022/03/05 08:39:11;;;;;;;10.55;8.02;;;10.70;81.00;;;;;;5000193;28;20209;-78
2022/03/05 08:41:38;;;;;;;8.95;7.72;;;10.80;79.10;;;;;;5008629;28;20287;-80
2022/03/05 08:44:06;;;;;;;8.30;7.55;;;11.00;81.20;;;;;;5008955;28;20226;-79
2022/03/05 08:46:33;;;;;;;8.85;7.95;;;11.30;81.00;;;;;;5007263;28;20208;-77
2022/03/05 08:49:00;;;;;;;10.25;7.80;;;11.50;81.00;;;;;;5009598;28;20203;-77
2022/03/05 08:51:27;;;;;;;10.13;7.95;;;11.50;80.60;;;;;;5005198;28;20227;-80
2022/03/05 08:53:54;;;;;;;8.93;7.95;;;11.80;79.40;;;;;;5011517;28;20399;-78
2022/03/05 08:56:23;;;;;;;8.40;7.57;;;11.70;79.00;;;;;;5007049;28;20219;-78
2022/03/05 08:58:50;;;;;;;8.80;7.90;;;11.70;78.30;;;;;;5005579;28;20199;-76
2022/03/05 09:01:17;;;;;;;8.20;7.30;;;11.70;79.80;;;;;;5002467;28;20227;-79
2022/03/05 09:03:44;;;;;;;7.82;7.15;;;11.50;78.50;;;;;;5003685;28;20233;-78
2022/03/05 09:06:12;;;;;;;8.23;7.43;;;11.80;77.50;;;;;;5007294;28;20611;-78
2022/03/05 09:08:39;;;;;;;8.68;7.88;;;12.30;76.00;;;;;;5019096;28;20188;-78
2022/03/05 09:11:06;;;;;;;8.23;7.43;;;12.50;74.80;;;;;;5013024;28;20234;-80
2022/03/05 09:13:35;;;;;;;8.30;7.60;;;12.50;74.70;;;;;;5001964;28;20196;-79
2022/03/05 09:16:02;;;;;;;8.85;7.75;;;12.30;75.00;;;;;;5008816;28;20227;-79
2022/03/05 09:18:29;;;;;;;8.05;7.32;;;12.20;72.80;;;;;;5004111;28;20200;-80
2022/03/05 09:20:56;;;;;;;7.88;6.80;;;11.90;73.10;;;;;;5005598;28;20230;-79
2022/03/05 09:23:23;;;;;;;8.35;7.55;;;11.80;72.60;;;;;;5006985;28;20203;-79
2022/03/05 09:25:51;;;;;;;8.25;7.35;;;11.70;72.80;;;;;;4999859;28;20796;-79
2022/03/05 09:28:18;;;;;;;8.70;7.80;;;11.50;73.00;;;;;;5000820;28;20201;-78
2022/03/05 09:30:46;;;;;;;8.57;7.72;;;11.20;74.90;;;;;;4998491;28;20220;-78
2022/03/05 09:33:13;;;;;;;8.38;7.57;;;11.40;74.00;;;;;;5002935;28;20219;-79
2022/03/05 09:35:41;;;;;;;8.82;8.02;;;11.70;74.30;;;;;;5002981;28;20222;-75
2022/03/05 09:38:08;;;;;;;8.07;7.28;;;12.00;74.20;;;;;;5003666;28;20556;-79
2022/03/05 09:40:35;;;;;;;7.78;7.03;;;11.90;73.20;;;;;;5004678;28;20218;-76
2022/03/05 09:43:03;;;;;;;8.57;7.53;;;11.80;74.00;;;;;;5009665;28;20208;-79
2022/03/05 09:45:30;;;;;;;7.32;6.63;;;12.00;74.90;;;;;;5005128;28;20220;-80
2022/03/05 09:47:59;;;;;;;8.77;7.88;;;12.10;74.50;;;;;;5006334;28;20204;-79
2022/03/05 09:50:28;;;;;;;8.50;7.50;;;11.90;73.40;;;;;;5006822;28;20220;-78
2022/03/05 09:52:56;;;;;;;9.48;7.80;;;11.90;73.20;;;;;;5004885;28;20208;-78
2022/03/05 09:55:23;;;;;;;9.15;7.53;;;12.20;73.30;;;;;;5004695;28;20228;-79
2022/03/05 09:57:50;;;;;;;8.57;7.78;;;12.00;72.30;;;;;;5001682;28;20521;-76
2022/03/05 10:00:18;;;;;;;8.73;7.82;;;11.80;72.60;;;;;;4999754;28;20220;-80
2022/03/05 10:02:47;;;;;;;8.35;7.55;;;11.60;72.90;;;;;;5009418;28;20318;-76
2022/03/05 10:05:21;;;;;;;8.27;7.40;;;11.50;70.50;;;;;;5002768;28;20217;-81
2022/03/05 10:08:12;;;;;;;8.18;7.38;;;11.70;70.50;;;;;;5008668;28;20184;-79
2022/03/05 10:10:48;;;;;;;8.35;7.55;;;12.00;70.30;;;;;;5003891;28;20628;-78
2022/03/05 10:13:24;;;;;;;8.55;7.72;;;12.00;69.60;;;;;;4998463;28;20200;-80
2022/03/05 10:15:52;;;;;;;8.63;7.80;;;12.20;70.20;;;;;;5005464;28;20228;-81
2022/03/05 10:18:27;;;;;;;9.35;8.20;;;12.20;69.80;;;;;;5008302;28;20646;-79
2022/03/05 10:20:56;;;;;;;8.27;7.45;;;12.20;69.20;;;;;;5004065;28;20238;-79
2022/03/05 10:23:24;;;;;;;10.40;7.47;;;12.50;69.70;;;;;;5001025;28;20316;-76
2022/03/05 10:25:53;;;;;;;7.88;7.18;;;12.40;68.60;;;;;;5003092;28;20255;-80
2022/03/05 10:28:22;;;;;;;9.23;7.22;;;12.50;69.10;;;;;;4999915;28;20235;-79
2022/03/05 10:30:51;;;;;;;7.72;7.00;;;12.70;69.20;;;;;;5008805;28;20227;-76
2022/03/05 10:33:27;;;;;;;7.63;6.93;;;12.80;71.10;;;;;;5017490;28;20819;-78
2022/03/05 10:35:55;;;;;;;8.95;8.15;;;13.10;69.10;;;;;;5012766;28;20223;-75
2022/03/05 10:38:23;;;;;;;8.68;7.88;;;13.20;66.80;;;;;;5007857;28;20254;-77
2022/03/05 10:40:56;;;;;;;8.60;7.80;;;12.80;66.90;;;;;;5007352;28;20222;-75
2022/03/05 10:43:23;;;;;;;8.93;8.02;;;12.50;66.40;;;;;;5014058;28;20757;-78
2022/03/05 10:45:53;;;;;;;8.30;7.25;;;12.50;68.40;;;;;;5010659;28;20349;-76
2022/03/05 10:48:28;;;;;;;10.13;7.68;;;12.50;67.70;;;;;;5004749;28;20204;-77
2022/03/05 10:51:02;;;;;;;7.43;6.72;;;12.80;67.40;;;;;;5016556;28;20604;-78
2022/03/05 10:53:41;;;;;;;9.07;8.27;;;12.90;67.40;;;;;;5008468;28;20450;-78
2022/03/05 10:56:29;;;;;;;7.68;6.97;;;12.80;65.70;;;;;;5012433;28;20222;-75
2022/03/05 10:59:04;;;;;;;8.27;7.57;;;13.00;65.40;;;;;;5015919;28;20211;-75
2022/03/05 11:01:32;;;;;;;8.50;7.70;;;13.30;66.00;;;;;;5006136;28;20216;-76
2022/03/05 11:04:00;;;;;;;8.15;6.70;;;13.20;66.00;;;;;;5015500;28;20231;-74
2022/03/05 11:06:29;;;;;;;7.80;7.10;;;12.90;65.40;;;;;;5007331;28;20212;-79
2022/03/05 11:08:58;;;;;;;8.32;7.43;;;12.70;64.70;;;;;;5011509;28;20204;-77
2022/03/05 11:11:26;;;;;;;8.30;7.10;;;12.70;66.20;;;;;;5015213;28;20220;-78
2022/03/05 11:13:53;;;;;;;8.32;7.53;;;13.20;66.40;;;;;;5018336;28;20220;-76
2022/03/05 11:16:21;;;;;;;8.10;7.30;;;13.20;65.20;;;;;;5022435;28;20595;-78
2022/03/05 11:18:49;;;;;;;8.05;7.25;;;12.90;64.70;;;;;;5017465;28;20207;-74
2022/03/05 11:21:16;;;;;;;8.85;7.72;;;12.50;64.90;;;;;;5013494;28;20230;-76
2022/03/05 11:23:46;;;;;;;10.20;7.90;;;12.50;65.90;;;;;;5015377;28;20531;-76
2022/03/05 11:26:13;;;;;;;8.75;7.57;;;12.50;67.20;;;;;;5010438;28;20445;-77
2022/03/05 11:28:45;;;;;;;8.07;7.32;;;12.60;65.30;;;;;;5010638;28;20229;-78
2022/03/05 11:31:18;;;;;;;8.15;7.40;;;12.70;63.50;;;;;;5010864;28;20212;-78
2022/03/05 11:33:46;;;;;;;7.78;7.07;;;12.70;64.70;;;;;;5014616;28;20233;-78
2022/03/05 11:36:31;;;;;;;8.75;7.85;;;12.60;63.90;;;;;;5016426;28;20687;-77
2022/03/05 11:39:15;;;;;;;8.10;7.40;;;12.50;64.60;;;;;;5014503;28;20196;-76
2022/03/05 11:41:54;;;;;;;8.30;7.50;;;12.40;63.60;;;;;;5009006;28;20329;-77
2022/03/05 11:44:23;;;;;;;8.48;7.68;;;12.30;62.40;;;;;;5011521;28;20223;-76
2022/03/05 11:47:11;;;;;;;7.70;7.00;;;12.20;63.80;;;;;;5012185;28;20224;-77
2022/03/05 11:50:20;;;;;;;8.60;7.63;;;12.30;64.90;;;;;;5016226;28;20714;-78
2022/03/05 11:53:06;;;;;;;7.38;6.78;;;12.30;65.00;;;;;;5011081;28;20335;-78
2022/03/05 11:55:41;;;;;;;8.40;7.03;;;12.80;63.30;;;;;;5019226;28;20223;-77
2022/03/05 11:58:35;;;;;;;7.22;6.53;;;13.00;62.50;;;;;;5025138;28;20223;-76
2022/03/05 12:01:35;;;;;;;7.38;6.68;;;12.90;62.40;;;;;;5005396;28;20192;-78
2022/03/05 12:04:22;;;;;;;7.38;6.78;;;13.10;62.20;;;;;;5013154;28;20342;-78
2022/03/05 12:06:52;;;;;;;7.75;6.97;;;12.80;62.00;;;;;;5012235;28;20206;-76
2022/03/05 12:09:37;;;;;;;8.80;7.90;;;12.30;62.10;;;;;;5014734;28;20226;-78
2022/03/05 12:12:08;;;;;;;7.22;6.60;;;12.20;63.40;;;;;;5002179;28;20265;-78
2022/03/05 12:15:12;;;;;;;7.40;6.70;;;12.00;62.60;;;;;;5012102;28;20318;-78
2022/03/05 12:17:48;;;;;;;6.93;6.32;;;12.30;62.50;;;;;;5003477;28;20642;-76
2022/03/05 12:20:18;;;;;;;9.30;7.07;;;12.50;62.60;;;;;;5003016;28;20226;-74
2022/03/05 12:22:55;;;;;;;8.10;7.30;;;12.30;62.80;;;;;;5012866;28;20452;-76
2022/03/05 12:25:23;;;;;;;9.20;7.40;;;12.00;63.40;;;;;;5010882;28;20215;-77
2022/03/05 12:27:53;;;;;;;7.85;7.13;;;12.20;62.50;;;;;;5010317;28;20307;-78
2022/03/05 12:30:22;;;;;;;8.65;7.85;;;12.40;62.20;;;;;;5009388;28;20858;-78
2022/03/05 12:32:51;;;;;;;8.13;7.43;;;12.30;63.00;;;;;;5013565;28;20755;-77
2022/03/05 12:35:18;;;;;;;7.88;7.15;;;12.40;62.60;;;;;;5055541;23;20581;-78
2022/03/05 12:37:45;;;;;;;8.20;7.40;;;12.20;61.50;;;;;;4989331;28;20192;-78
2022/03/05 12:40:13;;;;;;;7.60;6.88;;;12.10;61.70;;;;;;4982328;28;20209;-75
2022/03/05 12:42:43;;;;;;;7.50;6.80;;;12.10;59.80;;;;;;4984787;28;20193;-77
2022/03/05 12:45:17;;;;;;;8.95;6.93;;;12.00;60.30;;;;;;4983421;28;20300;-77
2022/03/05 12:47:45;;;;;;;7.75;6.95;;;12.20;60.90;;;;;;4991186;28;20279;-76
2022/03/05 12:50:28;;;;;;;6.78;6.18;;;12.20;58.90;;;;;;4995527;28;20270;-76
2022/03/05 12:53:06;;;;;;;6.88;6.28;;;12.20;61.30;;;;;;4995550;28;20763;-77
2022/03/05 12:55:36;;;;;;;9.48;7.80;;;12.60;61.40;;;;;;4997205;28;20220;-77